San Francisco, California
Traffic Map
Current Weather Conditions
San Francisco, California
Clear
Clear
17°
Feels Like: 17°
Wind Chill: 17° Ceiling: Unl
Heat Index: 17° Visibility: 10mi
Dew Point: 14° Wind: 8mph
Humidity: 81% Direction: 290° (WNW)
Pressure: 29.84in Gusts: 0mph
Raw Report DataKSFO 251056Z 29007KT 10SM CLR 17/14 A2984 RMK AO2 SLP103 T01720139 $
Traffic Incident Summary
Active as of:
Severity:
Category:
InformationThere was an issue retrieving the traffic information for this location. Please try a different location or try again shortly.
Advertisements
Track Severe Weather on mobile